Data for 08/22/2015

Time Sea-Level Adjusted Pressure Absolute Pressure Temperature Relative Humidity Dew Point   
(mb) (inHg) (mb) (inHg) (C) (F) (%) (C) (F)
00:05 1018 30.06 847 25.01 11.2 52.2 59 3.6 38.5
00:10 1018 30.06 847 25.01 11 51.8 61 3.8 38.8
00:15 1018 30.06 847 25.01 10.7 51.2 60 3.4 38.1
00:20 1018 30.06 847 25.01 10.4 50.6 63 3.7 38.7
00:25 1018 30.06 848 25.04 9.9 49.8 64 3.5 38.4
00:30 1018 30.06 848 25.04 9.7 49.4 64 3.2 37.8
00:35 1019 30.09 848 25.04 9.6 49.2 65 3.4 38.1
00:40 1019 30.09 848 25.04 9.5 49.1 66 3.5 38.3
00:45 1019 30.09 848 25.04 9.2 48.6 68 3.8 38.8
00:50 1019 30.09 848 25.04 8.9 48 71 4 39.1
00:55 1019 30.09 848 25.04 8.7 47.6 75 4.4 40
01:00 1019 30.09 848 25.04 8.4 47.1 75 4.2 39.6
01:05 1019 30.09 848 25.04 8.1 46.6 77 4.3 39.8
01:10 1019 30.09 848 25.04 7.8 46.1 78 4.2 39.5
01:15 1019 30.09 849 25.07 7.7 45.8 77 4 39.2
01:20 1019 30.09 848 25.04 7.5 45.5 79 4.1 39.3
01:25 1019 30.09 849 25.07 7.4 45.3 81 4.3 39.7
01:30 1020 30.12 849 25.07 7.2 45 80 4 39.2
01:35 1020 30.12 849 25.07 7.1 44.9 81 4.1 39.4
01:40 1020 30.12 849 25.07 7.2 45 81 4.2 39.6
01:45 1020 30.12 849 25.07 7.3 45.1 82 4.4 40
01:50 1020 30.12 849 25.07 7.1 44.7 80 3.8 38.8
01:55 1020 30.12 849 25.07 7 44.7 77 3.3 37.9
02:00 1020 30.12 850 25.1 7 44.6 77 3.2 37.8
02:05 1021 30.15 850 25.1 7 44.5 78 3.4 38.2
02:10 1021 30.15 850 25.1 6.9 44.3 77 3.1 37.7
02:15 1021 30.15 850 25.1 6.7 44.1 76 2.9 37.2
02:20 1021 30.15 850 25.1 6.8 44.2 77 3.1 37.6
02:25 1021 30.15 850 25.1 6.7 44.1 77 3.1 37.5
02:30 1021 30.15 850 25.1 6.6 43.9 78 3 37.3
02:35 1021 30.15 850 25.1 6.4 43.5 78 2.8 37
02:40 1021 30.15 850 25.1 6.3 43.3 79 2.9 37.2
02:45 1021 30.15 850 25.1 6.2 43.2 79 2.9 37.2
02:50 1021 30.15 850 25.1 6.1 43 79 2.8 37.1
02:55 1021 30.15 850 25.1 6 42.9 80 2.8 37
03:00 1021 30.15 850 25.1 6 42.7 79 2.7 36.8
03:05 1021 30.15 850 25.1 5.9 42.6 80 2.7 36.8
03:10 1021 30.15 851 25.13 5.8 42.5 80 2.6 36.7
03:15 1022 30.18 851 25.13 5.9 42.7 79 2.7 36.8
03:20 1022 30.18 851 25.13 6 42.8 78 2.5 36.5
03:25 1022 30.18 851 25.13 6 42.8 79 2.6 36.6
03:30 1022 30.18 851 25.13 6.1 43 78 2.6 36.7
03:35 1022 30.18 851 25.13 6.2 43.1 77 2.4 36.3
03:40 1022 30.18 851 25.13 6.1 43 76 2.3 36.1
03:45 1022 30.18 852 25.16 6 42.8 77 2.2 36
03:50 1022 30.18 852 25.16 5.9 42.7 77 2.3 36.1
03:55 1022 30.18 852 25.16 5.8 42.4 76 1.9 35.5
04:00 1022 30.18 852 25.16 5.7 42.2 77 1.9 35.5
04:05 1022 30.18 852 25.16 5.8 42.4 77 2 35.6
04:10 1022 30.18 852 25.16 5.7 42.3 77 2.1 35.7
04:15 1022 30.18 852 25.16 5.7 42.3 78 2.2 36
04:20 1022 30.18 852 25.16 5.6 42 78 2.1 35.8
04:25 1022 30.18 852 25.16 5.5 41.9 78 2.1 35.7
04:30 1023 30.21 852 25.16 5.6 42 78 2.1 35.8
04:35 1023 30.21 852 25.16 5.6 42.1 78 2.1 35.8
04:40 1023 30.21 852 25.16 5.5 41.8 78 1.9 35.5
04:45 1023 30.21 852 25.16 5.4 41.6 79 2 35.5
04:50 1023 30.21 852 25.16 5.3 41.5 79 1.9 35.4
04:55 1023 30.21 852 25.16 5.2 41.4 79 2 35.5
05:00 1023 30.21 852 25.16 5.2 41.4 79 1.9 35.4
05:05 1023 30.21 852 25.16 5.3 41.6 78 1.8 35.3
05:10 1023 30.21 852 25.16 5.3 41.6 78 1.8 35.3
05:15 1023 30.21 852 25.16 5.3 41.5 79 1.9 35.4
05:20 1023 30.21 852 25.16 5.3 41.5 79 1.9 35.5
05:25 1023 30.21 852 25.16 5.3 41.5 79 1.9 35.4
05:30 1023 30.21 853 25.19 5.3 41.5 79 1.9 35.3
05:35 1023 30.21 853 25.19 5.4 41.6 78 1.8 35.2
05:40 1023 30.21 853 25.19 5.4 41.7 78 1.9 35.4
05:45 1024 30.24 853 25.19 5.4 41.7 78 1.8 35.3
05:50 1024 30.24 853 25.19 5.4 41.6 78 1.8 35.2
05:55 1024 30.24 853 25.19 5.4 41.8 77 1.8 35.2
06:00 1024 30.24 853 25.19 5.4 41.7 77 1.8 35.2
06:05 1024 30.24 853 25.19 5.4 41.7 77 1.8 35.2
06:10 1024 30.24 853 25.19 5.4 41.7 77 1.7 35
06:15 1024 30.24 853 25.19 5.4 41.8 77 1.7 35.1
06:20 1024 30.24 853 25.19 5.3 41.6 78 1.7 35.1
06:25 1024 30.24 853 25.19 5.3 41.6 78 1.8 35.2
06:30 1024 30.24 853 25.19 5.3 41.6 77 1.7 35
06:35 1024 30.24 854 25.22 5.4 41.7 76 1.6 34.8
06:40 1024 30.24 854 25.22 5.4 41.7 77 1.6 35
06:45 1024 30.24 854 25.22 5.3 41.6 76 1.5 34.8
06:50 1025 30.27 854 25.22 5.5 41.9 77 1.7 35.1
06:55 1025 30.27 854 25.22 5.6 42.1 75 1.5 34.8
07:00 1025 30.27 854 25.22 5.6 42.1 74 1.4 34.6
07:05 1025 30.27 854 25.22 5.6 42.1 74 1.4 34.6
07:10 1025 30.27 854 25.22 5.6 42 74 1.3 34.4
07:15 1025 30.27 854 25.22 5.7 42.2 73 1.2 34.2
07:20 1025 30.27 854 25.22 5.7 42.2 73 1.1 34
07:25 1025 30.27 854 25.22 5.7 42.3 72 1.2 34.1
07:30 1025 30.27 854 25.22 5.8 42.5 72 1.2 34.2
07:35 1025 30.27 854 25.22 5.6 42.1 73 1.2 34.2
07:40 1025 30.27 854 25.22 5.6 42.1 71 0.9 33.6
07:45 1025 30.27 854 25.22 5.9 42.6 71 1.1 34
07:50 1025 30.27 854 25.22 6.1 43 70 1.1 33.9
07:55 1025 30.27 854 25.22 6.1 43.1 69 1 33.8
08:00 1025 30.27 855 25.25 6.3 43.4 68 0.9 33.7
08:05 1025 30.27 855 25.25 6.5 43.7 68 1 33.9
08:10 1025 30.27 855 25.25 6.6 43.8 66 0.7 33.2
08:15 1025 30.27 855 25.25 6.3 43.3 67 0.6 33
08:20 1026 30.3 855 25.25 6.5 43.6 66 0.7 33.2
08:25 1026 30.3 855 25.25 6.6 43.9 65 0.6 33
08:30 1026 30.3 855 25.25 6.7 44 65 0.5 33
08:35 1026 30.3 855 25.25 6.7 44.1 65 0.6 33.1
08:40 1026 30.3 855 25.25 6.8 44.2 65 0.7 33.2
08:45 1026 30.3 855 25.25 6.8 44.2 65 0.7 33.3
08:50 1026 30.3 855 25.25 6.8 44.2 65 0.6 33.1
08:55 1026 30.3 855 25.25 7 44.6 64 0.7 33.3
09:00 1026 30.3 855 25.25 7.2 44.9 63 0.6 33.1
09:05 1026 30.3 855 25.25 7.3 45.2 62 0.6 33
09:10 1026 30.3 855 25.25 7.5 45.6 62 0.8 33.5
09:15 1026 30.3 855 25.25 7.5 45.5 61 0.6 33
09:20 1026 30.3 855 25.25 7.6 45.7 61 0.5 32.9
09:25 1026 30.3 855 25.25 7.9 46.3 60 0.7 33.2
09:30 1026 30.3 855 25.25 8.7 47.7 58 0.9 33.6
09:35 1026 30.3 855 25.25 8.9 48 56 0.7 33.2
09:40 1026 30.3 855 25.25 9.3 48.7 54 0.4 32.8
09:45 1026 30.3 855 25.25 9.8 49.6 53 0.6 33.1
09:50 1026 30.3 855 25.25 9.7 49.4 54 0.8 33.4
09:55 1026 30.3 856 25.28 9.1 48.4 55 0.6 33.1
10:00 1026 30.3 856 25.28 8.8 47.8 55 0.4 32.7
10:05 1026 30.3 856 25.28 8.8 47.8 54 0.1 32.2
10:10 1026 30.3 856 25.28 8.6 47.4 56 0.3 32.5
10:15 1026 30.3 856 25.28 8.8 47.9 55 0.2 32.3
10:20 1026 30.3 856 25.28 9.2 48.5 53 0.2 32.4
10:25 1027 30.33 856 25.28 9.4 49 53 0.4 32.8
10:30 1027 30.33 856 25.28 9.4 48.9 52 0 32.1
10:35 1027 30.33 856 25.28 9.9 49.8 50 0.1 32.2
10:40 1027 30.33 856 25.28 10.1 50.1 50 0.2 32.3
10:45 1027 30.33 856 25.28 9.7 49.5 52 0.3 32.6
10:50 1027 30.33 856 25.28 9.9 49.8 49 -0.1 31.7
10:55 1027 30.33 856 25.28 10.1 50.1 47 -0.6 30.9
11:00 1027 30.33 856 25.28 10.1 50.2 50 0.1 32.3
11:05 1027 30.33 856 25.28 9.3 48.7 51 -0.2 31.6
11:10 1027 30.33 856 25.28 9.4 49 51 -0.2 31.7
11:15 1027 30.33 856 25.28 9.9 49.9 48 -0.4 31.3
11:20 1027 30.33 856 25.28 11 51.7 47 0.1 32.1
11:25 1027 30.33 856 25.28 11.4 52.5 46 0.1 32.2
11:30 1027 30.33 856 25.28 12.2 54 42 -0.3 31.5
11:35 1027 30.33 856 25.28 12.3 54.1 45 0.7 33.3
11:40 1026 30.3 856 25.28 11.4 52.4 45 -0.1 31.8
11:45 1026 30.3 856 25.28 12.3 54.1 43 0.2 32.3
11:50 1026 30.3 856 25.28 11.8 53.2 44 0.1 32.2
11:55 1026 30.3 856 25.28 11.9 53.4 43 -0.2 31.6
12:00 1026 30.3 856 25.28 12.1 53.9 43 -0 31.9
12:05 1026 30.3 856 25.28 12.2 54 43 0.2 32.3
12:10 1026 30.3 855 25.25 12.6 54.7 42 0.2 32.4
12:15 1026 30.3 855 25.25 12.1 53.8 42 -0.4 31.3
12:20 1026 30.3 855 25.25 12.4 54.2 42 -0.2 31.7
12:25 1026 30.3 855 25.25 12.8 55 43 0.5 32.9
12:30 1026 30.3 855 25.25 12.6 54.6 41 -0.3 31.5
12:35 1026 30.3 855 25.25 13.1 55.6 40 -0.1 31.8
12:40 1026 30.3 855 25.25 13.8 56.9 38 -0 32
12:45 1026 30.3 855 25.25 13.3 56 41 0.5 33
12:50 1026 30.3 855 25.25 12.2 53.9 43 0.2 32.3
12:55 1026 30.3 855 25.25 12.5 54.5 39 -0.9 30.4
13:00 1026 30.3 855 25.25 13.6 56.4 38 -0.2 31.6
13:05 1026 30.3 855 25.25 13.2 55.8 39 -0.3 31.5
13:10 1026 30.3 855 25.25 13.9 56.9 36 -0.8 30.6
13:15 1026 30.3 855 25.25 14.6 58.4 35 -0.5 31
13:20 1026 30.3 855 25.25 14.6 58.2 35 -0.7 30.7
13:25 1026 30.3 855 25.25 14.7 58.4 34 -1 30.2
13:30 1026 30.3 855 25.25 14 57.1 36 -0.9 30.3
13:35 1026 30.3 855 25.25 14.6 58.3 35 -0.4 31.2
13:40 1026 30.3 855 25.25 13.8 56.9 37 -0.4 31.3
13:45 1026 30.3 855 25.25 13.1 55.6 37 -1.2 29.8
13:50 1026 30.3 855 25.25 14.1 57.5 35 -1 30.2
13:55 1026 30.3 855 25.25 15.3 59.5 33 -1 30.2
14:00 1026 30.3 855 25.25 15.4 59.7 33 -0.8 30.6
14:05 1026 30.3 855 25.25 15.5 59.9 33 -0.6 31
14:10 1026 30.3 855 25.25 15.8 60.4 32 -0.6 30.8
14:15 1026 30.3 855 25.25 15.5 59.8 33 -0.7 30.7
14:20 1026 30.3 855 25.25 16 60.8 31 -1.1 30
14:25 1026 30.3 855 25.25 15.7 60.2 33 -0.3 31.4
14:30 1025 30.27 855 25.25 15.9 60.5 31 -1 30.2
14:35 1025 30.27 855 25.25 15.4 59.7 33 -0.8 30.5
14:40 1025 30.27 855 25.25 14.9 58.7 33 -1.2 29.8
14:45 1025 30.27 855 25.25 14.6 58.4 33 -1.2 29.8
14:50 1025 30.27 855 25.25 15.6 60 32 -0.8 30.6
14:55 1025 30.27 855 25.25 16.3 61.3 29 -1.6 29.2
15:00 1025 30.27 855 25.25 15.9 60.7 31 -1 30.2
15:05 1025 30.27 855 25.25 15.9 60.5 31 -1.3 29.6
15:10 1025 30.27 854 25.22 16.3 61.4 30 -1.2 29.9
15:15 1025 30.27 854 25.22 16.8 62.3 29 -1.1 30
15:20 1025 30.27 854 25.22 17.3 63.1 29 -0.8 30.5
15:25 1025 30.27 854 25.22 17.1 62.7 29 -1.1 30
15:30 1025 30.27 855 25.25 16.6 62 29 -1.2 29.8
15:35 1025 30.27 854 25.22 15.8 60.5 31 -1.3 29.7
15:40 1025 30.27 854 25.22 16.4 61.4 29 -1.4 29.4
15:45 1025 30.27 854 25.22 16.6 61.9 31 -0.7 30.7
15:50 1025 30.27 855 25.25 16.7 62.1 29 -1.3 29.7
15:55 1025 30.27 854 25.22 16.9 62.3 29 -1 30.1
16:00 1025 30.27 854 25.22 17 62.7 29 -1 30.1
16:05 1025 30.27 854 25.22 16.8 62.3 29 -1.1 29.9
16:10 1025 30.27 854 25.22 16.8 62.2 30 -0.8 30.6
16:15 1025 30.27 854 25.22 16.2 61.2 30 -1.4 29.5
16:20 1025 30.27 854 25.22 16.7 62.1 29 -1.2 29.8
16:25 1025 30.27 854 25.22 16.8 62.3 29 -1.4 29.5
16:30 1025 30.27 854 25.22 17 62.6 30 -0.6 30.9
16:35 1025 30.27 854 25.22 16.4 61.5 30 -1.3 29.7
16:40 1025 30.27 854 25.22 16.2 61.2 30 -1.4 29.5
16:45 1025 30.27 854 25.22 17.1 62.8 28 -1.5 29.4
16:50 1025 30.27 854 25.22 17.4 63.3 27 -1.8 28.7
16:55 1025 30.27 854 25.22 17.3 63.2 28 -1.4 29.5
17:00 1025 30.27 854 25.22 16.6 61.9 30 -0.9 30.3
17:05 1025 30.27 854 25.22 16.3 61.4 29 -1.8 28.8
17:10 1025 30.27 854 25.22 16.6 61.8 29 -1.3 29.6
17:15 1025 30.27 854 25.22 16.6 61.9 29 -1.5 29.3
17:20 1025 30.27 854 25.22 16.3 61.4 26 -3.3 26.1
17:25 1025 30.27 854 25.22 16.7 62 28 -1.8 28.7
17:30 1025 30.27 854 25.22 16.7 62 27 -2.3 27.8
17:35 1025 30.27 854 25.22 16.2 61.2 28 -2 28.4
17:40 1025 30.27 854 25.22 16.3 61.3 28 -2.2 28.1
17:45 1025 30.27 854 25.22 15.5 60 30 -2.1 28.2
17:50 1025 30.27 854 25.22 15.1 59.1 30 -2.4 27.8
17:55 1025 30.27 854 25.22 15 58.9 29 -2.8 26.9
18:00 1025 30.27 854 25.22 14.8 58.7 29 -2.9 26.8
18:05 1025 30.27 854 25.22 14.9 58.8 29 -2.7 27.1
18:10 1025 30.27 854 25.22 14.8 58.7 29 -3.1 26.4
18:15 1025 30.27 854 25.22 14.7 58.5 29 -2.9 26.8
18:20 1025 30.27 854 25.22 14.7 58.5 29 -3.1 26.4
18:25 1025 30.27 854 25.22 14.8 58.7 30 -2.7 27.2
18:30 1025 30.27 854 25.22 15 59 29 -2.6 27.3
18:35 1025 30.27 854 25.22 15 58.9 28 -3.5 25.6
18:40 1025 30.27 854 25.22 14.7 58.5 29 -3.2 26.3
18:45 1025 30.27 854 25.22 14.6 58.3 30 -2.5 27.5
18:50 1025 30.27 854 25.22 14.4 58 29 -3.2 26.2
18:55 1025 30.27 854 25.22 14.4 57.8 31 -2.3 27.9
19:00 1025 30.27 854 25.22 14.3 57.8 33 -1.7 28.9
19:05 1025 30.27 854 25.22 14 57.1 34 -1.4 29.5
19:10 1025 30.27 854 25.22 13.7 56.7 33 -2.2 28
19:15 1025 30.27 854 25.22 13.6 56.6 35 -1.4 29.5
19:20 1025 30.27 854 25.22 13.4 56.2 32 -2.7 27.2
19:25 1025 30.27 854 25.22 13.3 56 37 -1 30.2
19:30 1025 30.27 854 25.22 12.8 55 38 -1 30.1
19:35 1025 30.27 854 25.22 12.7 54.8 37 -1.5 29.2
19:40 1025 30.27 854 25.22 12.6 54.7 36 -1.8 28.7
19:45 1025 30.27 854 25.22 12.3 54.1 46 1 33.8
19:50 1025 30.27 854 25.22 11.5 52.8 49 1.1 34.1
19:55 1025 30.27 854 25.22 11.1 52 51 1.3 34.4
20:00 1025 30.27 854 25.22 10.2 50.4 51 0.5 32.9
20:05 1025 30.27 854 25.22 9.9 49.7 50 -0 32
20:10 1025 30.27 854 25.22 9.9 49.8 50 0.1 32.2
20:15 1025 30.27 854 25.22 9.9 49.8 49 -0.2 31.6
20:20 1025 30.27 854 25.22 9.8 49.6 50 -0.1 31.7
20:25 1025 30.27 854 25.22 9.6 49.3 50 -0.2 31.7
20:30 1025 30.27 854 25.22 9.3 48.7 51 -0.4 31.3
20:35 1025 30.27 854 25.22 8.8 47.9 52 -0.5 31.1
20:40 1025 30.27 854 25.22 8.4 47.1 52 -0.9 30.3
20:45 1025 30.27 854 25.22 8.4 47.2 50 -1.4 29.5
20:50 1025 30.27 854 25.22 8.7 47.7 50 -1.1 30
20:55 1025 30.27 854 25.22 8.5 47.3 51 -1.1 30
21:00 1025 30.27 854 25.22 8.3 47 52 -1 30.3
21:05 1025 30.27 854 25.22 8.4 47.1 50 -1.5 29.3
21:10 1025 30.27 854 25.22 8.5 47.3 49 -1.6 29.1
21:15 1025 30.27 854 25.22 8.5 47.3 48 -1.8 28.8
21:20 1025 30.27 854 25.22 8.5 47.3 50 -1.2 29.8
21:25 1025 30.27 854 25.22 8.1 46.5 50 -1.7 29
21:30 1025 30.27 854 25.22 8 46.4 50 -1.6 29.1
21:35 1025 30.27 854 25.22 7.7 45.9 51 -1.9 28.6
21:40 1025 30.27 854 25.22 7.6 45.6 49 -2.4 27.7
21:45 1025 30.27 854 25.22 7.7 45.9 49 -2.3 27.9
21:50 1025 30.27 854 25.22 7.7 45.8 49 -2.4 27.7
21:55 1025 30.27 854 25.22 7.8 46 47 -2.8 27
22:00 1025 30.27 854 25.22 7.9 46.2 47 -2.7 27.1
22:05 1025 30.27 854 25.22 7.7 45.9 48 -2.6 27.4
22:10 1025 30.27 854 25.22 7.8 46 47 -2.8 27
22:15 1025 30.27 854 25.22 7.7 45.9 47 -2.8 26.9
22:20 1025 30.27 854 25.22 7.8 46 47 -2.9 26.8
22:25 1025 30.27 854 25.22 7.8 46 46 -3.1 26.5
22:30 1025 30.27 854 25.22 7.8 46 45 -3.3 26.1
22:35 1025 30.27 854 25.22 7.9 46.2 45 -3.2 26.2
22:40 1025 30.27 854 25.22 7.7 45.8 45 -3.6 25.5
22:45 1025 30.27 854 25.22 7.5 45.6 45 -3.6 25.5
22:50 1025 30.27 854 25.22 7.4 45.3 45 -3.6 25.5
22:55 1025 30.27 854 25.22 7.3 45.1 46 -3.7 25.4
23:00 1025 30.27 854 25.22 7 44.7 46 -3.8 25.1
23:05 1025 30.27 854 25.22 7.2 44.9 45 -3.9 24.9
23:10 1025 30.27 854 25.22 7.2 45 45 -3.8 25.2
23:15 1025 30.27 854 25.22 7.1 44.8 46 -3.7 25.4
23:20 1025 30.27 854 25.22 7.2 44.9 46 -3.6 25.5
23:25 1025 30.27 854 25.22 7.1 44.7 45 -4 24.8
23:30 1024 30.24 854 25.22 7.2 44.9 45 -3.9 25
23:35 1024 30.24 854 25.22 7.2 44.9 44 -4.2 24.4
23:40 1024 30.24 854 25.22 7.3 45.2 43 -4.3 24.2
23:45 1024 30.24 854 25.22 7.4 45.3 44 -4.1 24.7
23:50 1024 30.24 854 25.22 7.1 44.7 47 -3.4 25.8
23:55 1024 30.24 854 25.22 6.6 43.9 46 -4.2 24.4
24:00 1024 30.24 854 25.22 6.7 44 46 -4 24.8